Terminal Aerodrome Forecast
Issued by NWS

Home | Current Version | Previous Version | Text Only | Print | Product List | Glossary On
Versions: 1 2 3 4 5 6 7 8 9 10 11 12 13 14 15 16 17 18 19 20 21 22 23 24 25 26 27 28 29 30
156
FTUS42 KGSP 141720
TAFHKY
TAF
KHKY 141720Z 1418/1518 09005KT P6SM OVC060
     FM150300 13004KT P6SM OVC060 PROB30 1503/1506 4SM -SN OVC040
     FM150600 14004KT P6SM OVC050 PROB30 1506/1512 2SM -SN OVC025
     FM151200 04004KT 6SM -SN OVC020
     FM151500 04004KT 6SM -SNPL OVC015=

USA.gov is the U.S. government's official web portal to all federal, state and local government web resources and services.